createdAt,value
2022-09-13T00:03:00.845Z,10.53
2022-09-13T00:07:01.785Z,9.63
2022-09-13T00:11:03.530Z,11.30
2022-09-13T00:15:05.452Z,11.40
2022-09-13T00:19:06.477Z,11.70
2022-09-13T00:23:07.699Z,12.13
2022-09-13T00:27:08.656Z,9.67
2022-09-13T00:31:09.698Z,12.53
2022-09-13T00:35:10.784Z,13.03
2022-09-13T00:39:11.645Z,11.93
2022-09-13T00:43:18.701Z,11.77
2022-09-13T00:47:23.380Z,11.80
2022-09-13T00:51:25.891Z,11.57
2022-09-13T00:55:33.515Z,11.80
2022-09-13T00:59:40.837Z,10.90
2022-09-13T01:03:44.601Z,12.03
2022-09-13T01:07:45.733Z,12.57
2022-09-13T01:11:49.692Z,13.47
2022-09-13T01:15:51.411Z,12.80
2022-09-13T01:19:52.334Z,14.47
2022-09-13T01:24:00.025Z,12.47
2022-09-13T01:28:10.838Z,12.67
2022-09-13T01:32:36.878Z,12.93
2022-09-13T01:37:02.891Z,12.40
2022-09-13T01:41:10.541Z,12.70
2022-09-13T01:45:32.091Z,13.03
2022-09-13T01:49:39.831Z,14.93
2022-09-13T01:54:02.956Z,14.30
2022-09-13T01:58:26.006Z,14.60
2022-09-13T02:02:50.218Z,13.70
2022-09-13T02:07:13.639Z,14.90
2022-09-13T02:11:17.004Z,15.37
2022-09-13T02:15:25.224Z,13.50
2022-09-13T02:19:30.855Z,12.57
2022-09-13T02:23:36.515Z,14.33
2022-09-13T02:27:41.169Z,13.27
2022-09-13T02:32:11.636Z,14.40
2022-09-13T02:36:16.380Z,13.17
2022-09-13T02:40:22.149Z,12.13
2022-09-13T02:44:27.054Z,13.20
2022-09-13T02:48:51.108Z,12.87
2022-09-13T02:53:25.729Z,11.90
2022-09-13T02:57:36.843Z,13.47
2022-09-13T03:01:40.169Z,11.90
2022-09-13T03:05:41.724Z,13.13
2022-09-13T03:09:49.600Z,13.90
2022-09-13T03:14:06.441Z,12.30
2022-09-13T03:18:32.391Z,13.23
2022-09-13T03:22:54.116Z,13.53
2022-09-13T03:26:58.774Z,11.03
2022-09-13T03:31:04.129Z,12.10
2022-09-13T03:35:27.301Z,12.47
2022-09-13T03:39:49.711Z,14.30
2022-09-13T03:43:57.430Z,12.63
2022-09-13T03:47:59.589Z,13.13
2022-09-13T03:52:01.298Z,13.53
2022-09-13T03:56:19.110Z,11.67
2022-09-13T04:00:20.610Z,13.63
2022-09-13T04:04:21.952Z,11.17
2022-09-13T04:08:23.171Z,13.10
2022-09-13T04:12:24.230Z,12.30
2022-09-13T04:16:25.312Z,11.23
2022-09-13T04:20:26.539Z,14.83
2022-09-13T04:24:29.398Z,14.37
2022-09-13T04:28:30.379Z,13.60
2022-09-13T04:36:41.072Z,12.87
2022-09-13T04:40:42.236Z,12.67
2022-09-13T04:44:44.172Z,18.40
2022-09-13T04:48:49.951Z,16.27
2022-09-13T04:52:55.804Z,13.07
2022-09-13T04:56:57.295Z,13.33
2022-09-13T05:01:03.663Z,13.10
2022-09-13T05:05:05.290Z,12.83
2022-09-13T05:09:06.181Z,14.63
2022-09-13T05:13:07.287Z,16.77
2022-09-13T05:17:08.400Z,15.33
2022-09-13T05:21:09.255Z,14.30
2022-09-13T05:25:10.219Z,11.83
2022-09-13T05:29:11.197Z,13.10
2022-09-13T05:33:12.136Z,14.30
2022-09-13T05:37:13.126Z,13.17
2022-09-13T05:41:14.276Z,12.87
2022-09-13T05:45:15.330Z,12.20
2022-09-13T05:49:16.600Z,11.60
2022-09-13T05:53:17.583Z,11.60
2022-09-13T05:57:18.606Z,11.90
2022-09-13T06:01:22.499Z,10.60
2022-09-13T06:05:23.884Z,11.77
2022-09-13T06:09:25.251Z,12.77
2022-09-13T06:13:27.524Z,11.07
2022-09-13T06:17:28.692Z,11.57
2022-09-13T06:21:29.678Z,11.30
2022-09-13T06:25:30.742Z,10.93
2022-09-13T06:29:31.714Z,11.80
2022-09-13T06:33:34.071Z,11.70
2022-09-13T06:37:35.092Z,13.53
2022-09-13T06:41:36.916Z,13.73
2022-09-13T06:45:37.868Z,14.37
2022-09-13T06:49:39.150Z,12.83
2022-09-13T06:53:41.136Z,11.93
2022-09-13T06:57:42.015Z,11.70
2022-09-13T07:01:44.086Z,12.33
2022-09-13T07:05:45.191Z,12.80
2022-09-13T07:09:46.146Z,14.20
2022-09-13T07:13:51.266Z,12.57
2022-09-13T07:17:52.228Z,13.27
2022-09-13T07:21:54.529Z,13.20
2022-09-13T07:25:58.858Z,13.63
2022-09-13T07:29:59.825Z,13.57
2022-09-13T07:34:03.976Z,11.50
2022-09-13T07:38:04.990Z,12.00
2022-09-13T07:42:05.961Z,11.50
2022-09-13T07:46:10.448Z,10.17
2022-09-13T07:50:11.574Z,10.20
2022-09-13T07:54:15.484Z,12.43
2022-09-13T07:58:16.542Z,14.43
2022-09-13T08:02:17.913Z,14.40
2022-09-13T08:06:19.496Z,10.87
2022-09-13T08:10:20.670Z,10.13
2022-09-13T08:14:22.863Z,10.80
2022-09-13T08:18:23.847Z,10.60
2022-09-13T08:22:26.099Z,10.13
2022-09-13T08:26:28.329Z,9.47
2022-09-13T08:30:31.203Z,10.67
2022-09-13T08:34:33.109Z,8.87
2022-09-13T08:38:35.424Z,8.83
2022-09-13T08:43:16.009Z,10.17
2022-09-13T08:47:21.707Z,10.87
2022-09-13T08:51:34.048Z,9.40
2022-09-13T08:56:05.390Z,8.30
2022-09-13T09:00:20.661Z,7.63
2022-09-13T09:04:29.811Z,6.93
2022-09-13T09:08:35.227Z,6.20
2022-09-13T09:12:46.132Z,6.43
2022-09-13T09:16:51.038Z,5.57
2022-09-13T09:20:57.715Z,5.57
2022-09-13T09:24:59.660Z,6.60
2022-09-13T09:29:24.206Z,6.43
2022-09-13T09:33:44.608Z,6.70
2022-09-13T09:37:53.132Z,5.63
2022-09-13T09:41:57.064Z,5.30
2022-09-13T09:46:02.325Z,5.87
2022-09-13T09:50:10.404Z,6.83
2022-09-13T09:54:12.151Z,7.07
2022-09-13T09:58:19.021Z,7.67
2022-09-13T10:02:21.462Z,7.57
2022-09-13T10:06:24.959Z,7.63
2022-09-13T10:10:34.197Z,7.90
2022-09-13T10:14:38.985Z,7.90
2022-09-13T10:18:44.512Z,6.83
2022-09-13T10:22:43.017Z,6.67
2022-09-13T10:26:45.216Z,6.30
2022-09-13T10:31:00.496Z,5.17
2022-09-13T10:35:08.450Z,5.13
2022-09-13T10:39:19.472Z,3.70
2022-09-13T10:43:22.647Z,4.20
2022-09-13T10:47:38.775Z,3.67
2022-09-13T10:51:40.967Z,3.07
2022-09-13T10:55:43.521Z,1.10
2022-09-13T10:59:49.405Z,1.33
2022-09-13T11:04:01.058Z,1.40
2022-09-13T11:08:12.821Z,0.83
2022-09-13T11:12:33.026Z,0.80
2022-09-13T11:16:47.538Z,0.70
2022-09-13T11:21:01.768Z,0.73
2022-09-13T11:25:07.261Z,0.97
2022-09-13T11:29:28.458Z,1.00
2022-09-13T11:34:05.211Z,1.17
2022-09-13T11:38:23.336Z,1.00
2022-09-13T11:42:40.520Z,0.70
2022-09-13T11:46:46.314Z,0.77
2022-09-13T11:51:09.942Z,0.90
2022-09-13T11:55:24.597Z,0.90
2022-09-13T11:59:44.809Z,1.07
2022-09-13T12:04:05.317Z,1.20
2022-09-13T12:08:19.498Z,1.00
2022-09-13T12:12:24.421Z,1.07
2022-09-13T12:16:50.586Z,2.30
2022-09-13T12:20:56.564Z,1.27
2022-09-13T12:25:03.710Z,1.13
2022-09-13T12:29:26.378Z,0.80
2022-09-13T12:33:28.058Z,0.90
2022-09-13T12:37:51.006Z,1.30
2022-09-13T12:41:59.140Z,2.83
2022-09-13T12:46:28.482Z,3.27
2022-09-13T12:50:43.301Z,1.23
2022-09-13T12:54:58.094Z,1.10
2022-09-13T12:59:17.150Z,1.30
2022-09-13T13:03:19.300Z,2.00
2022-09-13T13:07:23.302Z,1.60
2022-09-13T13:11:31.106Z,1.40
2022-09-13T13:15:38.987Z,1.30
2022-09-13T13:19:40.563Z,1.37
2022-09-13T13:23:42.411Z,1.33
2022-09-13T13:27:48.574Z,1.40
2022-09-13T13:32:06.705Z,1.00
2022-09-13T13:36:31.658Z,1.70
2022-09-13T13:40:33.323Z,1.30
2022-09-13T13:44:39.717Z,1.00
2022-09-13T13:48:42.238Z,1.80
2022-09-13T13:52:55.481Z,2.40
2022-09-13T13:56:57.588Z,2.57
2022-09-13T14:01:02.247Z,3.07
2022-09-13T14:05:41.443Z,3.00
2022-09-13T14:09:52.766Z,2.77
2022-09-13T14:14:14.122Z,2.60
2022-09-13T14:18:37.435Z,2.70
2022-09-13T14:22:38.816Z,3.00
2022-09-13T14:26:40.660Z,2.67
2022-09-13T14:30:44.464Z,2.60
2022-09-13T14:34:55.371Z,1.43
2022-09-13T14:38:59.021Z,1.20
2022-09-13T14:43:00.236Z,1.67
2022-09-13T14:47:07.776Z,1.10
2022-09-13T14:51:25.535Z,1.40
2022-09-13T14:55:36.089Z,1.10
2022-09-13T14:59:43.656Z,1.13
2022-09-13T15:03:46.527Z,1.07
2022-09-13T15:07:48.171Z,1.20
2022-09-13T15:11:56.099Z,1.67
2022-09-13T15:16:01.495Z,1.40
2022-09-13T15:20:06.187Z,1.70
2022-09-13T15:24:11.590Z,1.27
2022-09-13T15:28:26.212Z,1.20
2022-09-13T15:32:42.095Z,1.13
2022-09-13T15:36:45.010Z,1.40
2022-09-13T15:40:49.368Z,1.30
2022-09-13T15:44:50.521Z,1.20
2022-09-13T15:48:55.411Z,2.07
2022-09-13T15:52:57.933Z,1.27
2022-09-13T15:56:59.274Z,1.63
2022-09-13T16:01:00.749Z,1.50
2022-09-13T16:05:02.310Z,1.43
2022-09-13T16:09:24.495Z,0.80
2022-09-13T16:13:25.679Z,1.27
2022-09-13T16:17:27.595Z,1.03
2022-09-13T16:21:29.054Z,1.20
2022-09-13T16:25:30.923Z,1.27
2022-09-13T16:29:32.237Z,1.27
2022-09-13T16:33:34.094Z,1.63
2022-09-13T16:37:35.382Z,1.10
2022-09-13T16:41:39.511Z,1.87
2022-09-13T16:45:41.250Z,1.40
2022-09-13T16:49:42.920Z,1.57
2022-09-13T16:53:44.326Z,1.10
2022-09-13T16:57:47.491Z,1.03
2022-09-13T17:01:49.496Z,1.43
2022-09-13T17:05:59.692Z,1.30
2022-09-13T17:10:01.151Z,1.50
2022-09-13T17:14:04.785Z,1.17
2022-09-13T17:18:07.034Z,1.10
2022-09-13T17:22:10.559Z,1.47
2022-09-13T17:26:12.016Z,1.90
2022-09-13T17:30:13.468Z,1.93
2022-09-13T17:34:14.483Z,3.13
2022-09-13T17:38:15.693Z,1.53
2022-09-13T17:42:20.055Z,1.80
2022-09-13T17:46:22.173Z,2.23
2022-09-13T17:50:23.433Z,1.87
2022-09-13T17:54:26.382Z,2.03
2022-09-13T17:58:27.890Z,2.27
2022-09-13T18:02:29.269Z,2.30
2022-09-13T18:06:30.653Z,1.90
2022-09-13T18:10:53.502Z,2.05
2022-09-13T18:14:35.975Z,2.10
2022-09-13T18:18:44.005Z,2.80
2022-09-13T18:22:46.238Z,3.27
2022-09-13T18:26:47.891Z,2.50
2022-09-13T18:30:56.744Z,3.72
2022-09-13T18:34:58.351Z,3.30
2022-09-13T18:39:02.412Z,3.57
2022-09-13T18:43:06.298Z,4.70
2022-09-13T18:47:08.315Z,3.90
2022-09-13T18:51:13.358Z,3.90
2022-09-13T18:55:16.703Z,4.70
2022-09-13T18:59:18.178Z,4.03
2022-09-13T19:03:21.545Z,3.80
2022-09-13T19:07:23.939Z,3.67
2022-09-13T19:11:45.835Z,3.60
2022-09-13T19:15:31.479Z,3.40
2022-09-13T19:19:35.109Z,3.90
2022-09-13T19:23:58.031Z,4.37
2022-09-13T19:27:40.929Z,4.90
2022-09-13T19:31:46.415Z,4.92
2022-09-13T19:35:48.374Z,6.53
2022-09-13T19:39:49.922Z,6.95
2022-09-13T19:43:54.783Z,4.73
2022-09-13T19:51:59.790Z,5.60
2022-09-13T19:56:02.357Z,6.80
2022-09-13T20:00:05.930Z,6.13
2022-09-13T20:04:14.139Z,6.87
2022-09-13T20:08:15.543Z,5.10
2022-09-13T20:12:16.919Z,5.50
2022-09-13T20:16:21.077Z,4.60
2022-09-13T20:20:23.879Z,4.50
2022-09-13T20:24:25.342Z,4.97
2022-09-13T20:28:27.111Z,4.20
2022-09-13T20:32:28.165Z,5.23
2022-09-13T20:36:35.458Z,4.67
2022-09-13T20:40:37.538Z,7.40
2022-09-13T20:44:41.834Z,6.57
2022-09-13T20:48:44.097Z,6.27
2022-09-13T20:52:46.706Z,6.50
2022-09-13T20:56:48.688Z,6.20
2022-09-13T21:00:50.135Z,5.80
2022-09-13T21:04:51.457Z,6.83
2022-09-13T21:08:53.363Z,6.03
2022-09-13T21:12:54.401Z,5.93
2022-09-13T21:16:56.404Z,5.63
2022-09-13T21:20:59.069Z,6.03
2022-09-13T21:25:00.168Z,6.53
2022-09-13T21:29:01.277Z,6.23
2022-09-13T21:33:02.321Z,7.20
2022-09-13T21:37:03.528Z,6.90
2022-09-13T21:41:07.400Z,7.63
2022-09-13T21:45:09.493Z,7.83
2022-09-13T21:49:12.744Z,6.93
2022-09-13T21:53:14.123Z,7.43
2022-09-13T21:57:15.535Z,6.43
2022-09-13T22:01:19.023Z,6.80
2022-09-13T22:05:20.065Z,6.90
2022-09-13T22:09:23.534Z,7.13
2022-09-13T22:13:25.075Z,5.80
2022-09-13T22:17:26.318Z,6.80
2022-09-13T22:21:30.368Z,7.43
2022-09-13T22:25:31.715Z,7.57
2022-09-13T22:29:33.482Z,7.73
2022-09-13T22:33:35.394Z,7.60
2022-09-13T22:37:36.570Z,7.63
2022-09-13T22:41:38.530Z,8.93
2022-09-13T22:45:39.859Z,7.13
2022-09-13T22:49:40.848Z,8.07
2022-09-13T22:53:43.864Z,8.03
2022-09-13T22:57:45.179Z,9.67
2022-09-13T23:01:47.229Z,9.43
2022-09-13T23:05:51.884Z,8.90
2022-09-13T23:09:55.350Z,8.63
2022-09-13T23:13:59.840Z,10.80
2022-09-13T23:18:00.905Z,10.13
2022-09-13T23:22:02.071Z,9.37
2022-09-13T23:26:08.962Z,11.27
2022-09-13T23:30:10.885Z,12.17
2022-09-13T23:34:13.794Z,12.90
2022-09-13T23:38:14.970Z,12.53
2022-09-13T23:42:17.269Z,19.67
2022-09-13T23:46:19.212Z,16.90
2022-09-13T23:50:20.406Z,18.27
2022-09-13T23:54:21.500Z,15.10
2022-09-13T23:58:23.160Z,14.20
